Airport Name : Jefferson City Mem

Other Name : Jefferson City

ICAO : KJEF

IATA : JEF

FAA : JEF

Latitude : 38.591181

Longitude : -92.156144

Country : United States

Local Date and Time : 22 Sep 2020 13:15

 

TAF (Terminal Aerodrome Forecast)

 

METAR (METeorological Aerodrome Report)

KJEF 221753Z 11004KT 10SM CLR 23/15 A3018 RMK AO2 SLP207 T02330150 10233 20122 58018

KJEF 221653Z 11005KT 10SM CLR 21/14 A3020 RMK AO2 SLP215 T02060144

KJEF 221553Z 13004KT 10SM CLR 18/14 A3022 RMK AO2 SLP223 T01830139

KJEF 221453Z 12005KT 9SM CLR 17/13 A3023 RMK AO2 SLP228 T01670133 53008

To Charter a Jet Click here.